Terminal Aerodrome Forecast
Issued by NWS

Home | Current Version | Previous Version | Text Only | Print | Product List | Glossary On
Versions: 1 2 3 4 5 6 7 8 9 10 11 12 13 14 15 16 17
000
FTUS42 KMHX 282300
TAFPGV
TAF
KPGV 282320Z 2900/2924 00000KT P6SM SKC
     FM290600 06004KT 5SM BR BKN050
      TEMPO 2909/2912 2SM BR BKN005
     FM291300 08005KT P6SM SCT035
     FM291800 09007KT P6SM BKN050
      AMD LTD TO CLD VIS AND WIND=

USA.gov is the U.S. government's official web portal to all federal, state and local government web resources and services.